sensor_id;sensor_type;location;lat;lon;timestamp;P1;durP1;ratioP1;P2;durP2;ratioP2
36715;SDS011;22699;51.034;3.730;2022-07-23T00:00:22;6.68;;;5.97;;
36715;SDS011;22699;51.034;3.730;2022-07-23T00:02:50;7.32;;;6.30;;
36715;SDS011;22699;51.034;3.730;2022-07-23T00:05:18;6.22;;;5.68;;
36715;SDS011;22699;51.034;3.730;2022-07-23T00:07:44;7.18;;;6.20;;
36715;SDS011;22699;51.034;3.730;2022-07-23T00:10:09;10.43;;;6.97;;
36715;SDS011;22699;51.034;3.730;2022-07-23T00:12:36;6.90;;;6.18;;
36715;SDS011;22699;51.034;3.730;2022-07-23T00:15:03;6.70;;;5.97;;
36715;SDS011;22699;51.034;3.730;2022-07-23T00:17:29;6.93;;;5.60;;
36715;SDS011;22699;51.034;3.730;2022-07-23T00:19:55;6.40;;;5.70;;
36715;SDS011;22699;51.034;3.730;2022-07-23T00:22:21;9.27;;;5.70;;
36715;SDS011;22699;51.034;3.730;2022-07-23T00:24:47;7.53;;;6.10;;
36715;SDS011;22699;51.034;3.730;2022-07-23T00:27:12;9.10;;;6.18;;
36715;SDS011;22699;51.034;3.730;2022-07-23T00:29:38;7.07;;;5.78;;
36715;SDS011;22699;51.034;3.730;2022-07-23T00:32:04;10.65;;;5.68;;
36715;SDS011;22699;51.034;3.730;2022-07-23T00:34:33;7.32;;;6.63;;
36715;SDS011;22699;51.034;3.730;2022-07-23T00:37:04;8.98;;;6.28;;
36715;SDS011;22699;51.034;3.730;2022-07-23T00:39:32;7.55;;;6.80;;
36715;SDS011;22699;51.034;3.730;2022-07-23T00:41:58;7.68;;;6.25;;
36715;SDS011;22699;51.034;3.730;2022-07-23T00:44:24;8.57;;;6.35;;
36715;SDS011;22699;51.034;3.730;2022-07-23T00:46:55;7.78;;;6.43;;
36715;SDS011;22699;51.034;3.730;2022-07-23T00:49:24;9.77;;;6.82;;
36715;SDS011;22699;51.034;3.730;2022-07-23T00:51:54;8.43;;;6.90;;
36715;SDS011;22699;51.034;3.730;2022-07-23T00:54:23;8.43;;;7.40;;
36715;SDS011;22699;51.034;3.730;2022-07-23T00:56:49;7.95;;;6.43;;
36715;SDS011;22699;51.034;3.730;2022-07-23T00:59:15;10.63;;;7.72;;
36715;SDS011;22699;51.034;3.730;2022-07-23T01:01:44;7.97;;;7.07;;
36715;SDS011;22699;51.034;3.730;2022-07-23T01:04:12;10.30;;;6.88;;
36715;SDS011;22699;51.034;3.730;2022-07-23T01:06:40;9.85;;;7.05;;
36715;SDS011;22699;51.034;3.730;2022-07-23T01:09:10;8.73;;;6.85;;
36715;SDS011;22699;51.034;3.730;2022-07-23T01:11:36;8.07;;;7.15;;
36715;SDS011;22699;51.034;3.730;2022-07-23T01:14:12;7.95;;;7.15;;
36715;SDS011;22699;51.034;3.730;2022-07-23T01:16:40;12.40;;;8.63;;
36715;SDS011;22699;51.034;3.730;2022-07-23T01:19:06;8.45;;;6.90;;
36715;SDS011;22699;51.034;3.730;2022-07-23T01:21:36;9.63;;;7.32;;
36715;SDS011;22699;51.034;3.730;2022-07-23T01:24:04;10.68;;;7.70;;
36715;SDS011;22699;51.034;3.730;2022-07-23T01:26:31;10.27;;;7.20;;
36715;SDS011;22699;51.034;3.730;2022-07-23T01:28:56;12.10;;;7.43;;
36715;SDS011;22699;51.034;3.730;2022-07-23T01:31:22;10.30;;;7.30;;
36715;SDS011;22699;51.034;3.730;2022-07-23T01:33:48;12.18;;;8.23;;
36715;SDS011;22699;51.034;3.730;2022-07-23T01:36:14;10.63;;;7.70;;
36715;SDS011;22699;51.034;3.730;2022-07-23T01:38:40;9.75;;;7.65;;
36715;SDS011;22699;51.034;3.730;2022-07-23T01:43:34;10.73;;;7.57;;
36715;SDS011;22699;51.034;3.730;2022-07-23T01:48:31;9.63;;;8.27;;
36715;SDS011;22699;51.034;3.730;2022-07-23T01:50:57;10.15;;;7.97;;
36715;SDS011;22699;51.034;3.730;2022-07-23T01:53:26;10.95;;;7.40;;
36715;SDS011;22699;51.034;3.730;2022-07-23T01:55:51;8.95;;;7.20;;
36715;SDS011;22699;51.034;3.730;2022-07-23T01:58:17;10.70;;;8.00;;
36715;SDS011;22699;51.034;3.730;2022-07-23T02:00:43;7.68;;;6.88;;
36715;SDS011;22699;51.034;3.730;2022-07-23T02:03:11;11.55;;;8.10;;
36715;SDS011;22699;51.034;3.730;2022-07-23T02:05:37;9.32;;;8.30;;
36715;SDS011;22699;51.034;3.730;2022-07-23T02:08:03;12.05;;;8.45;;
36715;SDS011;22699;51.034;3.730;2022-07-23T02:10:29;9.35;;;8.30;;
36715;SDS011;22699;51.034;3.730;2022-07-23T02:12:57;12.68;;;8.60;;
36715;SDS011;22699;51.034;3.730;2022-07-23T02:15:23;10.88;;;8.27;;
36715;SDS011;22699;51.034;3.730;2022-07-23T02:17:49;11.55;;;7.60;;
36715;SDS011;22699;51.034;3.730;2022-07-23T02:20:16;11.77;;;7.88;;
36715;SDS011;22699;51.034;3.730;2022-07-23T02:22:42;12.07;;;7.85;;
36715;SDS011;22699;51.034;3.730;2022-07-23T02:25:08;13.48;;;8.40;;
36715;SDS011;22699;51.034;3.730;2022-07-23T02:27:40;9.63;;;8.25;;
36715;SDS011;22699;51.034;3.730;2022-07-23T02:30:07;10.85;;;8.15;;
36715;SDS011;22699;51.034;3.730;2022-07-23T02:32:33;12.25;;;8.40;;
36715;SDS011;22699;51.034;3.730;2022-07-23T02:35:00;11.13;;;8.10;;
36715;SDS011;22699;51.034;3.730;2022-07-23T02:37:27;11.90;;;8.60;;
36715;SDS011;22699;51.034;3.730;2022-07-23T02:39:53;12.27;;;8.10;;
36715;SDS011;22699;51.034;3.730;2022-07-23T02:42:18;9.07;;;7.68;;
36715;SDS011;22699;51.034;3.730;2022-07-23T02:44:47;14.27;;;8.00;;
36715;SDS011;22699;51.034;3.730;2022-07-23T02:49:41;12.00;;;9.18;;
36715;SDS011;22699;51.034;3.730;2022-07-23T02:52:07;10.82;;;8.52;;
36715;SDS011;22699;51.034;3.730;2022-07-23T02:54:36;13.25;;;9.18;;
36715;SDS011;22699;51.034;3.730;2022-07-23T02:57:02;11.75;;;8.70;;
36715;SDS011;22699;51.034;3.730;2022-07-23T02:59:28;11.20;;;8.38;;
36715;SDS011;22699;51.034;3.730;2022-07-23T03:01:54;10.55;;;9.50;;
36715;SDS011;22699;51.034;3.730;2022-07-23T03:04:20;13.65;;;8.68;;
36715;SDS011;22699;51.034;3.730;2022-07-23T03:06:45;11.48;;;9.18;;
36715;SDS011;22699;51.034;3.730;2022-07-23T03:09:14;9.98;;;8.63;;
36715;SDS011;22699;51.034;3.730;2022-07-23T03:11:40;10.45;;;9.18;;
36715;SDS011;22699;51.034;3.730;2022-07-23T03:14:05;15.15;;;9.27;;
36715;SDS011;22699;51.034;3.730;2022-07-23T03:16:33;9.95;;;8.63;;
36715;SDS011;22699;51.034;3.730;2022-07-23T03:18:59;10.95;;;8.73;;
36715;SDS011;22699;51.034;3.730;2022-07-23T03:21:24;10.65;;;8.60;;
36715;SDS011;22699;51.034;3.730;2022-07-23T03:23:50;11.10;;;8.77;;
36715;SDS011;22699;51.034;3.730;2022-07-23T03:26:16;10.25;;;8.43;;
36715;SDS011;22699;51.034;3.730;2022-07-23T03:28:41;13.95;;;9.27;;
36715;SDS011;22699;51.034;3.730;2022-07-23T03:31:08;17.08;;;9.35;;
36715;SDS011;22699;51.034;3.730;2022-07-23T03:33:34;9.82;;;8.70;;
36715;SDS011;22699;51.034;3.730;2022-07-23T03:35:59;11.10;;;9.55;;
36715;SDS011;22699;51.034;3.730;2022-07-23T03:38:26;11.85;;;9.98;;
36715;SDS011;22699;51.034;3.730;2022-07-23T03:40:52;12.77;;;9.50;;
36715;SDS011;22699;51.034;3.730;2022-07-23T03:43:17;13.07;;;9.85;;
36715;SDS011;22699;51.034;3.730;2022-07-23T03:45:43;11.95;;;10.15;;
36715;SDS011;22699;51.034;3.730;2022-07-23T03:48:09;12.40;;;10.25;;
36715;SDS011;22699;51.034;3.730;2022-07-23T03:50:35;14.75;;;10.88;;
36715;SDS011;22699;51.034;3.730;2022-07-23T03:53:02;10.77;;;9.50;;
36715;SDS011;22699;51.034;3.730;2022-07-23T03:55:28;12.50;;;10.10;;
36715;SDS011;22699;51.034;3.730;2022-07-23T03:58:05;16.65;;;10.20;;
36715;SDS011;22699;51.034;3.730;2022-07-23T04:00:31;11.25;;;9.63;;
36715;SDS011;22699;51.034;3.730;2022-07-23T04:02:57;12.63;;;10.25;;
36715;SDS011;22699;51.034;3.730;2022-07-23T04:05:28;14.40;;;9.82;;
36715;SDS011;22699;51.034;3.730;2022-07-23T04:07:58;15.07;;;10.63;;
36715;SDS011;22699;51.034;3.730;2022-07-23T04:10:24;15.93;;;10.75;;
36715;SDS011;22699;51.034;3.730;2022-07-23T04:12:49;14.00;;;10.00;;
36715;SDS011;22699;51.034;3.730;2022-07-23T04:15:15;13.50;;;10.15;;
36715;SDS011;22699;51.034;3.730;2022-07-23T04:17:41;11.82;;;9.98;;
36715;SDS011;22699;51.034;3.730;2022-07-23T04:20:06;16.13;;;11.43;;
36715;SDS011;22699;51.034;3.730;2022-07-23T04:22:34;12.50;;;9.45;;
36715;SDS011;22699;51.034;3.730;2022-07-23T04:27:29;15.25;;;10.73;;
36715;SDS011;22699;51.034;3.730;2022-07-23T04:29:55;13.88;;;10.15;;
36715;SDS011;22699;51.034;3.730;2022-07-23T04:32:20;12.35;;;10.30;;
36715;SDS011;22699;51.034;3.730;2022-07-23T04:37:16;12.95;;;10.15;;
36715;SDS011;22699;51.034;3.730;2022-07-23T04:39:47;14.02;;;10.38;;
36715;SDS011;22699;51.034;3.730;2022-07-23T04:42:14;12.38;;;9.13;;
36715;SDS011;22699;51.034;3.730;2022-07-23T04:47:08;12.40;;;9.80;;
36715;SDS011;22699;51.034;3.730;2022-07-23T04:49:36;12.20;;;9.57;;
36715;SDS011;22699;51.034;3.730;2022-07-23T04:52:02;14.70;;;10.60;;
36715;SDS011;22699;51.034;3.730;2022-07-23T04:54:30;13.48;;;10.10;;
36715;SDS011;22699;51.034;3.730;2022-07-23T04:56:57;14.67;;;10.50;;
36715;SDS011;22699;51.034;3.730;2022-07-23T04:59:29;13.35;;;9.77;;
36715;SDS011;22699;51.034;3.730;2022-07-23T05:01:54;9.75;;;8.40;;
36715;SDS011;22699;51.034;3.730;2022-07-23T05:04:20;12.40;;;8.88;;
36715;SDS011;22699;51.034;3.730;2022-07-23T05:06:46;9.18;;;8.05;;
36715;SDS011;22699;51.034;3.730;2022-07-23T05:09:11;15.98;;;9.40;;
36715;SDS011;22699;51.034;3.730;2022-07-23T05:11:37;10.35;;;8.57;;
36715;SDS011;22699;51.034;3.730;2022-07-23T05:14:02;13.20;;;9.07;;
36715;SDS011;22699;51.034;3.730;2022-07-23T05:18:57;11.23;;;9.70;;
36715;SDS011;22699;51.034;3.730;2022-07-23T05:21:24;11.85;;;9.85;;
36715;SDS011;22699;51.034;3.730;2022-07-23T05:23:50;13.90;;;10.50;;
36715;SDS011;22699;51.034;3.730;2022-07-23T05:26:15;10.73;;;9.05;;
36715;SDS011;22699;51.034;3.730;2022-07-23T05:28:41;14.05;;;10.05;;
36715;SDS011;22699;51.034;3.730;2022-07-23T05:31:06;12.23;;;10.63;;
36715;SDS011;22699;51.034;3.730;2022-07-23T05:33:32;13.30;;;10.43;;
36715;SDS011;22699;51.034;3.730;2022-07-23T05:36:01;13.50;;;9.95;;
36715;SDS011;22699;51.034;3.730;2022-07-23T05:38:31;11.80;;;9.10;;
36715;SDS011;22699;51.034;3.730;2022-07-23T05:40:57;12.65;;;10.88;;
36715;SDS011;22699;51.034;3.730;2022-07-23T05:43:23;11.68;;;9.75;;
36715;SDS011;22699;51.034;3.730;2022-07-23T05:45:49;13.38;;;9.90;;
36715;SDS011;22699;51.034;3.730;2022-07-23T05:48:14;11.73;;;9.50;;
36715;SDS011;22699;51.034;3.730;2022-07-23T05:50:41;11.13;;;9.50;;
36715;SDS011;22699;51.034;3.730;2022-07-23T05:53:07;12.18;;;9.65;;
36715;SDS011;22699;51.034;3.730;2022-07-23T05:55:33;15.00;;;10.10;;
36715;SDS011;22699;51.034;3.730;2022-07-23T05:58:02;11.70;;;9.68;;
36715;SDS011;22699;51.034;3.730;2022-07-23T06:00:34;10.80;;;8.77;;
36715;SDS011;22699;51.034;3.730;2022-07-23T06:05:32;11.50;;;8.55;;
36715;SDS011;22699;51.034;3.730;2022-07-23T06:10:46;12.70;;;8.07;;
36715;SDS011;22699;51.034;3.730;2022-07-23T06:13:30;11.10;;;8.95;;
36715;SDS011;22699;51.034;3.730;2022-07-23T06:21:44;9.10;;;7.47;;
36715;SDS011;22699;51.034;3.730;2022-07-23T06:26:55;11.25;;;8.50;;
36715;SDS011;22699;51.034;3.730;2022-07-23T06:29:29;10.00;;;7.45;;
36715;SDS011;22699;51.034;3.730;2022-07-23T06:32:07;10.55;;;8.63;;
36715;SDS011;22699;51.034;3.730;2022-07-23T06:34:35;11.13;;;8.15;;
36715;SDS011;22699;51.034;3.730;2022-07-23T06:37:08;9.55;;;7.40;;
36715;SDS011;22699;51.034;3.730;2022-07-23T06:43:00;10.80;;;7.78;;
36715;SDS011;22699;51.034;3.730;2022-07-23T06:45:34;10.85;;;8.60;;
36715;SDS011;22699;51.034;3.730;2022-07-23T06:48:09;12.90;;;8.88;;
36715;SDS011;22699;51.034;3.730;2022-07-23T06:53:45;9.13;;;7.75;;
36715;SDS011;22699;51.034;3.730;2022-07-23T06:56:11;9.13;;;7.95;;
36715;SDS011;22699;51.034;3.730;2022-07-23T06:59:01;8.90;;;8.00;;
36715;SDS011;22699;51.034;3.730;2022-07-23T07:01:30;9.77;;;8.13;;
36715;SDS011;22699;51.034;3.730;2022-07-23T07:03:57;10.48;;;7.65;;
36715;SDS011;22699;51.034;3.730;2022-07-23T07:06:22;10.25;;;7.40;;
36715;SDS011;22699;51.034;3.730;2022-07-23T07:08:48;10.00;;;8.05;;
36715;SDS011;22699;51.034;3.730;2022-07-23T07:11:14;11.23;;;7.68;;
36715;SDS011;22699;51.034;3.730;2022-07-23T07:13:39;10.55;;;8.32;;
36715;SDS011;22699;51.034;3.730;2022-07-23T07:16:05;10.02;;;7.10;;
36715;SDS011;22699;51.034;3.730;2022-07-23T07:18:31;8.85;;;7.47;;
36715;SDS011;22699;51.034;3.730;2022-07-23T07:20:56;8.35;;;6.30;;
36715;SDS011;22699;51.034;3.730;2022-07-23T07:23:23;10.73;;;7.03;;
36715;SDS011;22699;51.034;3.730;2022-07-23T07:25:50;10.35;;;7.55;;
36715;SDS011;22699;51.034;3.730;2022-07-23T07:28:16;8.02;;;7.13;;
36715;SDS011;22699;51.034;3.730;2022-07-23T07:30:41;10.82;;;6.15;;
36715;SDS011;22699;51.034;3.730;2022-07-23T07:33:07;7.95;;;6.50;;
36715;SDS011;22699;51.034;3.730;2022-07-23T07:35:33;8.60;;;5.70;;
36715;SDS011;22699;51.034;3.730;2022-07-23T07:37:59;8.25;;;5.38;;
36715;SDS011;22699;51.034;3.730;2022-07-23T07:42:54;8.95;;;4.88;;
36715;SDS011;22699;51.034;3.730;2022-07-23T07:45:22;4.10;;;3.20;;
36715;SDS011;22699;51.034;3.730;2022-07-23T07:47:49;9.93;;;5.20;;
36715;SDS011;22699;51.034;3.730;2022-07-23T07:50:16;11.32;;;4.97;;
36715;SDS011;22699;51.034;3.730;2022-07-23T07:52:42;6.38;;;5.05;;
36715;SDS011;22699;51.034;3.730;2022-07-23T07:55:08;5.88;;;4.22;;
36715;SDS011;22699;51.034;3.730;2022-07-23T07:57:35;6.45;;;5.20;;
36715;SDS011;22699;51.034;3.730;2022-07-23T08:00:01;4.47;;;3.75;;
36715;SDS011;22699;51.034;3.730;2022-07-23T08:02:27;6.55;;;4.78;;
36715;SDS011;22699;51.034;3.730;2022-07-23T08:04:53;6.47;;;5.43;;
36715;SDS011;22699;51.034;3.730;2022-07-23T08:07:18;6.30;;;5.70;;
36715;SDS011;22699;51.034;3.730;2022-07-23T08:09:44;8.00;;;6.60;;
36715;SDS011;22699;51.034;3.730;2022-07-23T08:12:10;9.73;;;7.00;;
36715;SDS011;22699;51.034;3.730;2022-07-23T08:14:36;8.95;;;7.40;;
36715;SDS011;22699;51.034;3.730;2022-07-23T08:17:01;6.70;;;5.78;;
36715;SDS011;22699;51.034;3.730;2022-07-23T08:19:27;6.95;;;5.60;;
36715;SDS011;22699;51.034;3.730;2022-07-23T08:21:52;8.63;;;5.28;;
36715;SDS011;22699;51.034;3.730;2022-07-23T08:24:18;6.55;;;5.95;;
36715;SDS011;22699;51.034;3.730;2022-07-23T08:26:43;7.30;;;6.28;;
36715;SDS011;22699;51.034;3.730;2022-07-23T08:29:15;8.38;;;6.07;;
36715;SDS011;22699;51.034;3.730;2022-07-23T08:31:41;8.88;;;5.50;;
36715;SDS011;22699;51.034;3.730;2022-07-23T08:34:06;6.07;;;4.72;;
36715;SDS011;22699;51.034;3.730;2022-07-23T08:36:32;8.88;;;6.13;;
36715;SDS011;22699;51.034;3.730;2022-07-23T08:39:00;10.65;;;7.00;;
36715;SDS011;22699;51.034;3.730;2022-07-23T08:41:28;7.43;;;6.10;;
36715;SDS011;22699;51.034;3.730;2022-07-23T08:43:54;6.47;;;5.50;;
36715;SDS011;22699;51.034;3.730;2022-07-23T08:46:20;5.97;;;4.90;;
36715;SDS011;22699;51.034;3.730;2022-07-23T08:48:47;4.75;;;3.95;;
36715;SDS011;22699;51.034;3.730;2022-07-23T08:51:13;5.90;;;5.32;;
36715;SDS011;22699;51.034;3.730;2022-07-23T08:53:39;8.98;;;5.93;;
36715;SDS011;22699;51.034;3.730;2022-07-23T08:56:07;6.18;;;4.80;;
36715;SDS011;22699;51.034;3.730;2022-07-23T08:58:33;5.03;;;3.58;;
36715;SDS011;22699;51.034;3.730;2022-07-23T09:00:59;5.55;;;4.13;;
36715;SDS011;22699;51.034;3.730;2022-07-23T09:03:29;5.82;;;4.28;;
36715;SDS011;22699;51.034;3.730;2022-07-23T09:05:57;6.82;;;5.28;;
36715;SDS011;22699;51.034;3.730;2022-07-23T09:08:25;6.28;;;4.93;;
36715;SDS011;22699;51.034;3.730;2022-07-23T09:10:59;4.90;;;3.60;;
36715;SDS011;22699;51.034;3.730;2022-07-23T09:13:31;5.13;;;3.80;;
36715;SDS011;22699;51.034;3.730;2022-07-23T09:16:23;5.00;;;3.97;;
36715;SDS011;22699;51.034;3.730;2022-07-23T09:24:00;5.70;;;3.25;;
36715;SDS011;22699;51.034;3.730;2022-07-23T09:31:49;3.03;;;2.40;;
36715;SDS011;22699;51.034;3.730;2022-07-23T09:36:53;3.85;;;2.75;;
36715;SDS011;22699;51.034;3.730;2022-07-23T09:39:30;2.55;;;2.35;;
36715;SDS011;22699;51.034;3.730;2022-07-23T09:41:58;3.63;;;2.33;;
36715;SDS011;22699;51.034;3.730;2022-07-23T09:44:48;3.75;;;2.70;;
36715;SDS011;22699;51.034;3.730;2022-07-23T09:47:15;5.32;;;2.47;;
36715;SDS011;22699;51.034;3.730;2022-07-23T09:49:57;3.53;;;2.70;;
36715;SDS011;22699;51.034;3.730;2022-07-23T09:52:27;3.08;;;2.45;;
36715;SDS011;22699;51.034;3.730;2022-07-23T09:55:13;4.53;;;2.90;;
36715;SDS011;22699;51.034;3.730;2022-07-23T09:57:40;3.95;;;3.00;;
36715;SDS011;22699;51.034;3.730;2022-07-23T10:00:08;3.35;;;2.30;;
36715;SDS011;22699;51.034;3.730;2022-07-23T10:02:35;5.82;;;3.08;;
36715;SDS011;22699;51.034;3.730;2022-07-23T10:05:02;4.97;;;3.03;;
36715;SDS011;22699;51.034;3.730;2022-07-23T10:07:30;3.50;;;2.50;;
36715;SDS011;22699;51.034;3.730;2022-07-23T10:09:58;3.75;;;2.30;;
36715;SDS011;22699;51.034;3.730;2022-07-23T10:12:25;7.22;;;3.42;;
36715;SDS011;22699;51.034;3.730;2022-07-23T10:14:54;3.38;;;2.55;;
36715;SDS011;22699;51.034;3.730;2022-07-23T10:17:22;3.10;;;2.57;;
36715;SDS011;22699;51.034;3.730;2022-07-23T10:19:48;3.63;;;2.70;;
36715;SDS011;22699;51.034;3.730;2022-07-23T10:22:21;3.58;;;2.83;;
36715;SDS011;22699;51.034;3.730;2022-07-23T10:24:52;5.47;;;3.10;;
36715;SDS011;22699;51.034;3.730;2022-07-23T10:30:09;4.07;;;2.95;;
36715;SDS011;22699;51.034;3.730;2022-07-23T10:32:44;3.72;;;2.50;;
36715;SDS011;22699;51.034;3.730;2022-07-23T10:38:03;3.63;;;2.88;;
36715;SDS011;22699;51.034;3.730;2022-07-23T10:40:32;4.97;;;2.85;;
36715;SDS011;22699;51.034;3.730;2022-07-23T10:42:58;5.35;;;2.90;;
36715;SDS011;22699;51.034;3.730;2022-07-23T10:48:14;5.30;;;3.15;;
36715;SDS011;22699;51.034;3.730;2022-07-23T10:50:42;2.95;;;2.53;;
36715;SDS011;22699;51.034;3.730;2022-07-23T10:53:13;4.85;;;2.85;;
36715;SDS011;22699;51.034;3.730;2022-07-23T10:55:44;4.18;;;3.00;;
36715;SDS011;22699;51.034;3.730;2022-07-23T10:58:18;3.58;;;2.50;;
36715;SDS011;22699;51.034;3.730;2022-07-23T11:00:46;4.90;;;2.63;;
36715;SDS011;22699;51.034;3.730;2022-07-23T11:03:30;4.97;;;2.65;;
36715;SDS011;22699;51.034;3.730;2022-07-23T11:06:03;3.13;;;2.42;;
36715;SDS011;22699;51.034;3.730;2022-07-23T11:08:31;3.33;;;2.85;;
36715;SDS011;22699;51.034;3.730;2022-07-23T11:13:32;4.45;;;2.40;;
36715;SDS011;22699;51.034;3.730;2022-07-23T11:16:20;6.25;;;2.30;;
36715;SDS011;22699;51.034;3.730;2022-07-23T11:31:59;2.35;;;1.63;;
36715;SDS011;22699;51.034;3.730;2022-07-23T11:34:46;2.80;;;2.10;;
36715;SDS011;22699;51.034;3.730;2022-07-23T11:39:57;3.60;;;1.98;;
36715;SDS011;22699;51.034;3.730;2022-07-23T11:44:52;3.45;;;1.90;;
36715;SDS011;22699;51.034;3.730;2022-07-23T11:47:22;4.32;;;1.80;;
36715;SDS011;22699;51.034;3.730;2022-07-23T11:49:53;3.95;;;1.92;;
36715;SDS011;22699;51.034;3.730;2022-07-23T11:52:19;2.53;;;2.10;;
36715;SDS011;22699;51.034;3.730;2022-07-23T11:57:24;4.90;;;2.40;;
36715;SDS011;22699;51.034;3.730;2022-07-23T11:59:55;2.80;;;2.10;;
36715;SDS011;22699;51.034;3.730;2022-07-23T12:02:24;3.22;;;2.20;;
36715;SDS011;22699;51.034;3.730;2022-07-23T12:04:51;4.70;;;1.98;;
36715;SDS011;22699;51.034;3.730;2022-07-23T12:12:42;5.97;;;2.33;;
36715;SDS011;22699;51.034;3.730;2022-07-23T12:17:40;3.90;;;2.85;;
36715;SDS011;22699;51.034;3.730;2022-07-23T12:20:09;3.65;;;2.45;;
36715;SDS011;22699;51.034;3.730;2022-07-23T12:22:39;6.07;;;2.40;;
36715;SDS011;22699;51.034;3.730;2022-07-23T12:25:19;6.05;;;2.50;;
36715;SDS011;22699;51.034;3.730;2022-07-23T12:27:58;3.25;;;1.98;;
36715;SDS011;22699;51.034;3.730;2022-07-23T12:30:34;3.42;;;2.60;;
36715;SDS011;22699;51.034;3.730;2022-07-23T12:33:07;4.05;;;1.98;;
36715;SDS011;22699;51.034;3.730;2022-07-23T12:35:43;3.13;;;2.25;;
36715;SDS011;22699;51.034;3.730;2022-07-23T12:38:12;4.43;;;2.83;;
36715;SDS011;22699;51.034;3.730;2022-07-23T12:40:49;3.05;;;2.72;;
36715;SDS011;22699;51.034;3.730;2022-07-23T12:43:29;5.43;;;2.63;;
36715;SDS011;22699;51.034;3.730;2022-07-23T12:46:11;3.63;;;2.60;;
36715;SDS011;22699;51.034;3.730;2022-07-23T12:48:53;3.75;;;2.58;;
36715;SDS011;22699;51.034;3.730;2022-07-23T12:51:29;5.55;;;3.35;;
36715;SDS011;22699;51.034;3.730;2022-07-23T12:54:09;5.65;;;2.30;;
36715;SDS011;22699;51.034;3.730;2022-07-23T12:59:15;6.05;;;2.88;;
36715;SDS011;22699;51.034;3.730;2022-07-23T13:01:54;7.18;;;2.50;;
36715;SDS011;22699;51.034;3.730;2022-07-23T13:04:24;3.00;;;2.20;;
36715;SDS011;22699;51.034;3.730;2022-07-23T13:06:59;6.43;;;2.90;;
36715;SDS011;22699;51.034;3.730;2022-07-23T13:09:30;2.67;;;1.95;;
36715;SDS011;22699;51.034;3.730;2022-07-23T13:11:58;4.13;;;2.50;;
36715;SDS011;22699;51.034;3.730;2022-07-23T13:14:27;4.22;;;2.88;;
36715;SDS011;22699;51.034;3.730;2022-07-23T13:19:22;2.85;;;2.50;;
36715;SDS011;22699;51.034;3.730;2022-07-23T13:24:20;7.03;;;2.58;;
36715;SDS011;22699;51.034;3.730;2022-07-23T13:26:47;6.65;;;3.00;;
36715;SDS011;22699;51.034;3.730;2022-07-23T13:29:19;3.63;;;2.23;;
36715;SDS011;22699;51.034;3.730;2022-07-23T13:34:42;3.55;;;2.83;;
36715;SDS011;22699;51.034;3.730;2022-07-23T13:37:08;3.38;;;2.55;;
36715;SDS011;22699;51.034;3.730;2022-07-23T13:39:35;2.58;;;1.98;;
36715;SDS011;22699;51.034;3.730;2022-07-23T13:42:02;4.80;;;2.90;;
36715;SDS011;22699;51.034;3.730;2022-07-23T13:44:27;3.85;;;2.55;;
36715;SDS011;22699;51.034;3.730;2022-07-23T13:46:53;4.55;;;2.63;;
36715;SDS011;22699;51.034;3.730;2022-07-23T13:49:19;5.07;;;2.45;;
36715;SDS011;22699;51.034;3.730;2022-07-23T13:51:44;7.55;;;3.42;;
36715;SDS011;22699;51.034;3.730;2022-07-23T13:54:10;6.50;;;3.42;;
36715;SDS011;22699;51.034;3.730;2022-07-23T13:56:36;5.10;;;3.42;;
36715;SDS011;22699;51.034;3.730;2022-07-23T13:59:17;4.68;;;3.40;;
36715;SDS011;22699;51.034;3.730;2022-07-23T14:01:49;5.13;;;2.60;;
36715;SDS011;22699;51.034;3.730;2022-07-23T14:04:16;5.20;;;3.63;;
36715;SDS011;22699;51.034;3.730;2022-07-23T14:06:41;3.38;;;2.67;;
36715;SDS011;22699;51.034;3.730;2022-07-23T14:09:07;4.25;;;2.63;;
36715;SDS011;22699;51.034;3.730;2022-07-23T14:11:33;4.72;;;3.00;;
36715;SDS011;22699;51.034;3.730;2022-07-23T14:13:58;5.32;;;3.00;;
36715;SDS011;22699;51.034;3.730;2022-07-23T14:16:26;4.78;;;2.70;;
36715;SDS011;22699;51.034;3.730;2022-07-23T14:18:52;5.72;;;3.08;;
36715;SDS011;22699;51.034;3.730;2022-07-23T14:21:18;5.80;;;2.78;;
36715;SDS011;22699;51.034;3.730;2022-07-23T14:23:43;3.67;;;3.08;;
36715;SDS011;22699;51.034;3.730;2022-07-23T14:26:11;4.68;;;3.22;;
36715;SDS011;22699;51.034;3.730;2022-07-23T14:28:36;5.30;;;2.53;;
36715;SDS011;22699;51.034;3.730;2022-07-23T14:31:02;5.43;;;3.20;;
36715;SDS011;22699;51.034;3.730;2022-07-23T14:33:28;5.32;;;2.95;;
36715;SDS011;22699;51.034;3.730;2022-07-23T14:35:53;5.60;;;3.33;;
36715;SDS011;22699;51.034;3.730;2022-07-23T14:38:19;4.47;;;3.00;;
36715;SDS011;22699;51.034;3.730;2022-07-23T14:40:44;3.60;;;2.88;;
36715;SDS011;22699;51.034;3.730;2022-07-23T14:43:10;5.65;;;3.25;;
36715;SDS011;22699;51.034;3.730;2022-07-23T14:45:40;3.90;;;3.28;;
36715;SDS011;22699;51.034;3.730;2022-07-23T14:48:06;5.03;;;2.95;;
36715;SDS011;22699;51.034;3.730;2022-07-23T14:50:33;3.78;;;2.88;;
36715;SDS011;22699;51.034;3.730;2022-07-23T14:52:59;4.70;;;2.75;;
36715;SDS011;22699;51.034;3.730;2022-07-23T14:55:26;5.50;;;3.53;;
36715;SDS011;22699;51.034;3.730;2022-07-23T14:57:52;7.60;;;3.20;;
36715;SDS011;22699;51.034;3.730;2022-07-23T15:00:17;3.45;;;3.15;;
36715;SDS011;22699;51.034;3.730;2022-07-23T15:02:43;4.80;;;3.35;;
36715;SDS011;22699;51.034;3.730;2022-07-23T15:05:09;4.00;;;3.22;;
36715;SDS011;22699;51.034;3.730;2022-07-23T15:07:34;6.55;;;3.40;;
36715;SDS011;22699;51.034;3.730;2022-07-23T15:10:03;7.32;;;3.92;;
36715;SDS011;22699;51.034;3.730;2022-07-23T15:12:31;5.05;;;3.17;;
36715;SDS011;22699;51.034;3.730;2022-07-23T15:14:57;5.03;;;3.72;;
36715;SDS011;22699;51.034;3.730;2022-07-23T15:17:24;6.22;;;4.35;;
36715;SDS011;22699;51.034;3.730;2022-07-23T15:19:50;5.30;;;3.40;;
36715;SDS011;22699;51.034;3.730;2022-07-23T15:22:17;6.25;;;3.70;;
36715;SDS011;22699;51.034;3.730;2022-07-23T15:24:50;4.68;;;3.50;;
36715;SDS011;22699;51.034;3.730;2022-07-23T15:27:17;5.00;;;4.15;;
36715;SDS011;22699;51.034;3.730;2022-07-23T15:29:44;7.20;;;3.80;;
36715;SDS011;22699;51.034;3.730;2022-07-23T15:32:15;7.15;;;4.57;;
36715;SDS011;22699;51.034;3.730;2022-07-23T15:34:47;6.10;;;4.93;;
36715;SDS011;22699;51.034;3.730;2022-07-23T15:37:13;4.43;;;4.00;;
36715;SDS011;22699;51.034;3.730;2022-07-23T15:39:43;8.10;;;4.70;;
36715;SDS011;22699;51.034;3.730;2022-07-23T15:42:08;5.55;;;4.38;;
36715;SDS011;22699;51.034;3.730;2022-07-23T15:44:36;5.82;;;4.38;;
36715;SDS011;22699;51.034;3.730;2022-07-23T15:47:05;6.35;;;4.20;;
36715;SDS011;22699;51.034;3.730;2022-07-23T15:49:38;6.90;;;5.25;;
36715;SDS011;22699;51.034;3.730;2022-07-23T15:52:07;6.35;;;4.78;;
36715;SDS011;22699;51.034;3.730;2022-07-23T15:59:43;6.85;;;4.55;;
36715;SDS011;22699;51.034;3.730;2022-07-23T16:02:09;5.07;;;4.30;;
36715;SDS011;22699;51.034;3.730;2022-07-23T16:04:41;6.15;;;4.05;;
36715;SDS011;22699;51.034;3.730;2022-07-23T16:09:39;5.70;;;4.18;;
36715;SDS011;22699;51.034;3.730;2022-07-23T16:12:05;5.95;;;4.60;;
36715;SDS011;22699;51.034;3.730;2022-07-23T16:14:31;5.53;;;4.70;;
36715;SDS011;22699;51.034;3.730;2022-07-23T16:16:56;4.50;;;3.90;;
36715;SDS011;22699;51.034;3.730;2022-07-23T16:19:22;7.97;;;4.82;;
36715;SDS011;22699;51.034;3.730;2022-07-23T16:21:51;7.15;;;5.10;;
36715;SDS011;22699;51.034;3.730;2022-07-23T16:24:17;8.15;;;4.47;;
36715;SDS011;22699;51.034;3.730;2022-07-23T16:26:43;5.82;;;4.45;;
36715;SDS011;22699;51.034;3.730;2022-07-23T16:29:08;6.30;;;4.30;;
36715;SDS011;22699;51.034;3.730;2022-07-23T16:31:34;6.30;;;4.47;;
36715;SDS011;22699;51.034;3.730;2022-07-23T16:34:00;5.78;;;4.63;;
36715;SDS011;22699;51.034;3.730;2022-07-23T16:36:31;6.65;;;4.72;;
36715;SDS011;22699;51.034;3.730;2022-07-23T16:39:00;5.75;;;4.75;;